CRF3 weather

Edmonton / Villeneuve (Rose Field)
Villeneuve, Alberta, Canada

Public forecast

Using degrees Celsius for public forecast. Weather courtesy of forecast.io.

METAR (pilot weather report)

Closest report is Edmonton / Villeneuve Airport, 2.2 nm (4.2 km) NW. Retrieved 2019/07/23 04:00 UTC (27 minutes ago):

CZVL 230400Z AUTO 17004KT 9SM CLR 21/16 A3005 RMK SLP173 DENSITY ALT 3300FT

TAF (pilot weather forecast)

Forecast is more than 12 hours old.

Closest forecast is Edmonton / Villeneuve Airport, 2.2 nm (4.2 km) NW. Retrieved 2019/07/22 00:00 UTC (1 day ago):

TAF CZVL 222338Z 2300/2312 18008KT P6SM SKC BECMG 2300/2302 16006KT FM230400 VRB03KT P6SM SKC PROB30 2310/2312 1/2SM FG VV002 RMK FCST BASED ON AUTO OBS. NXT FCST BY 230600Z